createdAt,value
2017-07-08T00:00:59.637Z,99.99
2017-07-08T00:01:59.646Z,99.99
2017-07-08T00:02:59.635Z,99.99
2017-07-08T00:03:59.633Z,99.99
2017-07-08T00:04:59.630Z,99.99
2017-07-08T00:05:59.629Z,99.99
2017-07-08T00:06:59.954Z,99.99
2017-07-08T00:07:59.625Z,99.99
2017-07-08T00:08:59.623Z,99.99
2017-07-08T00:09:59.960Z,99.99
2017-07-08T00:10:59.621Z,99.99
2017-07-08T00:11:59.617Z,99.99
2017-07-08T00:12:59.945Z,99.99
2017-07-08T00:13:59.614Z,99.99
2017-07-08T00:14:59.613Z,99.99
2017-07-08T00:15:59.940Z,99.99
2017-07-08T00:16:59.609Z,99.99
2017-07-08T00:17:59.785Z,99.99
2017-07-08T00:18:59.617Z,99.99
2017-07-08T00:19:59.932Z,99.99
2017-07-08T00:20:59.602Z,99.99
2017-07-08T00:21:59.601Z,99.99
2017-07-08T00:22:59.607Z,99.99
2017-07-08T00:23:59.597Z,99.99
2017-07-08T00:24:59.597Z,99.99
2017-07-08T00:25:59.599Z,99.99
2017-07-08T00:26:59.922Z,99.99
2017-07-08T00:27:59.935Z,99.99
2017-07-08T00:29:00.065Z,99.99
2017-07-08T00:29:59.587Z,99.99
2017-07-08T00:30:59.911Z,99.99
2017-07-08T00:31:59.909Z,99.99
2017-07-08T00:32:59.908Z,99.99
2017-07-08T00:33:59.577Z,99.99
2017-07-08T00:34:59.575Z,99.99
2017-07-08T00:35:59.584Z,99.99
2017-07-08T00:36:59.901Z,99.99
2017-07-08T00:37:59.592Z,99.99
2017-07-08T00:38:59.568Z,99.99
2017-07-08T00:40:00.047Z,99.99
2017-07-08T00:40:59.564Z,99.99
2017-07-08T00:41:59.563Z,99.99
2017-07-08T00:42:59.892Z,99.99
2017-07-08T00:43:59.890Z,99.99
2017-07-08T00:44:59.901Z,99.99
2017-07-08T00:45:59.881Z,99.99
2017-07-08T00:46:59.553Z,99.99
2017-07-08T00:47:59.561Z,99.99
2017-07-08T00:48:59.566Z,99.99
2017-07-08T00:49:59.548Z,99.99
2017-07-08T00:51:00.028Z,99.99
2017-07-08T00:51:59.544Z,99.99
2017-07-08T00:52:59.539Z,99.99
2017-07-08T00:53:59.537Z,99.99
2017-07-08T00:54:59.536Z,99.99
2017-07-08T00:55:59.535Z,99.99
2017-07-08T00:56:59.534Z,99.99
2017-07-08T00:57:59.531Z,99.99
2017-07-08T00:58:59.527Z,99.99
2017-07-08T00:59:59.866Z,99.99
2017-07-08T01:00:59.525Z,99.99
2017-07-08T01:01:59.852Z,99.99
2017-07-08T01:02:59.519Z,99.99
2017-07-08T01:03:59.517Z,99.99
2017-07-08T01:04:59.841Z,99.99
2017-07-08T01:05:59.514Z,99.99
2017-07-08T01:06:59.846Z,99.99
2017-07-08T01:07:59.839Z,99.99
2017-07-08T01:08:59.834Z,99.99
2017-07-08T01:09:59.833Z,99.99
2017-07-08T01:10:59.832Z,99.99
2017-07-08T01:11:59.831Z,99.99
2017-07-08T01:12:59.826Z,99.99
2017-07-08T01:13:59.826Z,99.99
2017-07-08T01:14:59.496Z,99.99
2017-07-08T01:15:59.839Z,99.99
2017-07-08T01:16:59.492Z,99.99
2017-07-08T01:17:59.816Z,99.99
2017-07-08T01:18:59.487Z,99.99
2017-07-08T01:19:59.486Z,99.99
2017-07-08T01:20:59.481Z,99.99
2017-07-08T01:21:59.806Z,99.99
2017-07-08T01:22:59.805Z,99.99
2017-07-08T01:23:59.805Z,99.99
2017-07-08T01:24:59.472Z,99.99
2017-07-08T01:25:59.472Z,99.99
2017-07-08T01:26:59.468Z,99.99
2017-07-08T01:27:59.816Z,99.99
2017-07-08T01:28:59.463Z,99.99
2017-07-08T01:29:59.461Z,99.99
2017-07-08T01:30:59.460Z,99.99
2017-07-08T01:31:59.455Z,99.99
2017-07-08T01:32:59.454Z,99.99
2017-07-08T01:33:59.452Z,99.99
2017-07-08T01:34:59.793Z,99.99
2017-07-08T01:35:59.447Z,99.99
2017-07-08T01:36:59.447Z,99.99
2017-07-08T01:37:59.775Z,99.99
2017-07-08T01:38:59.444Z,99.99
2017-07-08T01:39:59.439Z,99.99
2017-07-08T01:40:59.437Z,99.99
2017-07-08T01:41:59.432Z,99.99
2017-07-08T01:42:59.758Z,99.99
2017-07-08T01:43:59.428Z,99.99
2017-07-08T01:44:59.752Z,99.99
2017-07-08T01:45:59.451Z,99.99
2017-07-08T01:46:59.439Z,99.99
2017-07-08T01:47:59.418Z,99.99
2017-07-08T01:48:59.414Z,99.99
2017-07-08T01:49:59.412Z,99.99
2017-07-08T01:50:59.413Z,99.99
2017-07-08T01:51:59.409Z,99.99
2017-07-08T01:52:59.426Z,99.99
2017-07-08T01:53:59.735Z,99.99
2017-07-08T01:54:59.400Z,99.99
2017-07-08T01:55:59.728Z,99.99
2017-07-08T01:56:59.757Z,99.99
2017-07-08T01:57:59.719Z,99.99
2017-07-08T01:58:59.717Z,99.99
2017-07-08T01:59:59.718Z,99.99
2017-07-08T02:00:59.383Z,99.99
2017-07-08T02:01:59.710Z,99.99
2017-07-08T02:02:59.379Z,99.99
2017-07-08T02:03:59.767Z,99.99
2017-07-08T02:04:59.372Z,99.99
2017-07-08T02:05:59.370Z,99.99
2017-07-08T02:06:59.369Z,99.99
2017-07-08T02:07:59.692Z,99.99
2017-07-08T02:08:59.364Z,99.99
2017-07-08T02:09:59.692Z,99.99
2017-07-08T02:10:59.357Z,99.99
2017-07-08T02:11:59.353Z,99.99
2017-07-08T02:12:59.352Z,99.99
2017-07-08T02:13:59.349Z,99.99
2017-07-08T02:14:59.349Z,99.99
2017-07-08T02:15:59.347Z,99.99
2017-07-08T02:16:59.343Z,99.99
2017-07-08T02:17:59.341Z,99.99
2017-07-08T02:18:59.669Z,99.99
2017-07-08T02:19:59.335Z,99.99
2017-07-08T02:20:59.660Z,99.99
2017-07-08T02:21:59.344Z,99.99
2017-07-08T02:22:59.654Z,99.99
2017-07-08T02:23:59.326Z,99.99
2017-07-08T02:24:59.324Z,99.99
2017-07-08T02:25:59.321Z,99.99
2017-07-08T02:26:59.320Z,99.99
2017-07-08T02:27:59.319Z,99.99
2017-07-08T02:28:59.313Z,99.99
2017-07-08T02:29:59.418Z,99.99
2017-07-08T02:30:59.309Z,99.99
2017-07-08T02:31:59.635Z,99.99
2017-07-08T02:32:59.304Z,99.99
2017-07-08T02:33:59.311Z,99.99
2017-07-08T02:34:59.648Z,99.99
2017-07-08T02:35:59.300Z,99.99
2017-07-08T02:36:59.294Z,99.99
2017-07-08T02:37:59.291Z,99.99
2017-07-08T02:38:59.288Z,99.99
2017-07-08T02:39:59.286Z,99.99
2017-07-08T02:40:59.669Z,99.99
2017-07-08T02:41:59.283Z,99.99
2017-07-08T02:42:59.282Z,99.99
2017-07-08T02:43:59.278Z,99.99
2017-07-08T02:44:59.657Z,99.99
2017-07-08T02:45:59.274Z,99.99
2017-07-08T02:46:59.270Z,99.99
2017-07-08T02:47:59.606Z,99.99
2017-07-08T02:48:59.270Z,99.99
2017-07-08T02:49:59.271Z,99.99
2017-07-08T02:50:59.278Z,99.99
2017-07-08T02:51:59.409Z,99.99
2017-07-08T02:52:59.257Z,99.99
2017-07-08T02:53:59.601Z,99.99
2017-07-08T02:54:59.580Z,99.99
2017-07-08T02:55:59.248Z,99.99
2017-07-08T02:56:59.248Z,99.99
2017-07-08T02:57:59.248Z,99.99
2017-07-08T02:58:59.243Z,99.99
2017-07-08T02:59:59.239Z,99.99
2017-07-08T03:00:59.237Z,99.99
2017-07-08T03:01:59.248Z,99.99
2017-07-08T03:02:59.561Z,99.99
2017-07-08T03:03:59.232Z,99.99
2017-07-08T03:04:59.556Z,99.99
2017-07-08T03:05:59.225Z,99.99
2017-07-08T03:06:59.224Z,99.99
2017-07-08T03:07:59.550Z,99.99
2017-07-08T03:08:59.220Z,99.99
2017-07-08T03:09:59.229Z,99.99
2017-07-08T03:10:59.253Z,99.99
2017-07-08T03:11:59.536Z,99.99
2017-07-08T03:12:59.209Z,99.99
2017-07-08T03:13:59.622Z,99.99
2017-07-08T03:14:59.202Z,99.99
2017-07-08T03:15:59.215Z,99.99
2017-07-08T03:16:59.200Z,99.99
2017-07-08T03:17:59.576Z,99.99
2017-07-08T03:18:59.194Z,99.99
2017-07-08T03:19:59.529Z,99.99
2017-07-08T03:20:59.189Z,99.99
2017-07-08T03:21:59.512Z,99.99
2017-07-08T03:22:59.181Z,99.99
2017-07-08T03:23:59.199Z,99.99
2017-07-08T03:24:59.326Z,99.99
2017-07-08T03:25:59.173Z,99.99
2017-07-08T03:26:59.502Z,99.99
2017-07-08T03:27:59.168Z,99.99
2017-07-08T03:28:59.499Z,99.99
2017-07-08T03:29:59.166Z,99.99
2017-07-08T03:30:59.162Z,99.99
2017-07-08T03:31:59.159Z,99.99
2017-07-08T03:32:59.156Z,99.99
2017-07-08T03:33:59.485Z,99.99
2017-07-08T03:34:59.167Z,99.99
2017-07-08T03:35:59.631Z,99.99
2017-07-08T03:36:59.477Z,99.99
2017-07-08T03:37:59.476Z,99.99
2017-07-08T03:38:59.144Z,99.99
2017-07-08T03:39:59.469Z,99.99
2017-07-08T03:40:59.135Z,99.99
2017-07-08T03:41:59.135Z,99.99
2017-07-08T03:42:59.463Z,99.99
2017-07-08T03:43:59.460Z,99.99
2017-07-08T03:44:59.127Z,99.99
2017-07-08T03:45:59.124Z,99.99
2017-07-08T03:46:59.138Z,99.99
2017-07-08T03:47:59.452Z,99.99
2017-07-08T03:48:59.459Z,99.99
2017-07-08T03:49:59.116Z,99.99
2017-07-08T03:50:59.114Z,99.99
2017-07-08T03:51:59.112Z,99.99
2017-07-08T03:52:59.436Z,99.99
2017-07-08T03:53:59.125Z,99.99
2017-07-08T03:54:59.452Z,99.99
2017-07-08T03:55:59.103Z,99.99
2017-07-08T03:56:59.101Z,99.99
2017-07-08T03:57:59.116Z,99.99
2017-07-08T03:58:59.430Z,99.99
2017-07-08T03:59:59.096Z,99.99
2017-07-08T04:00:59.421Z,99.99
2017-07-08T04:01:59.094Z,99.99
2017-07-08T04:02:59.417Z,99.99
2017-07-08T04:03:59.433Z,99.99
2017-07-08T04:04:59.419Z,99.99
2017-07-08T04:05:59.429Z,99.99
2017-07-08T04:06:59.431Z,99.99
2017-07-08T04:07:59.427Z,99.99
2017-07-08T04:08:59.403Z,99.99
2017-07-08T04:09:59.407Z,99.99
2017-07-08T04:10:59.072Z,99.99
2017-07-08T04:11:59.069Z,99.99
2017-07-08T04:12:59.068Z,99.99
2017-07-08T04:13:59.065Z,99.99
2017-07-08T04:14:59.062Z,99.99
2017-07-08T04:15:59.061Z,99.99
2017-07-08T04:16:59.072Z,99.99
2017-07-08T04:17:59.057Z,99.99
2017-07-08T04:18:59.059Z,99.99
2017-07-08T04:19:59.204Z,99.99
2017-07-08T04:20:59.055Z,99.99
2017-07-08T04:21:59.050Z,99.99
2017-07-08T04:22:59.049Z,99.99
2017-07-08T04:23:59.375Z,99.99
2017-07-08T04:24:59.045Z,99.99
2017-07-08T04:25:59.059Z,99.99
2017-07-08T04:26:59.369Z,99.99
2017-07-08T04:27:59.042Z,99.99
2017-07-08T04:28:59.369Z,99.99
2017-07-08T04:29:59.038Z,99.99
2017-07-08T04:30:59.058Z,99.99
2017-07-08T04:31:59.369Z,99.99
2017-07-08T04:32:59.033Z,99.99
2017-07-08T04:33:59.030Z,99.99
2017-07-08T04:34:59.033Z,99.99
2017-07-08T04:35:59.026Z,99.99
2017-07-08T04:36:59.027Z,99.99
2017-07-08T04:37:59.023Z,99.99
2017-07-08T04:38:59.023Z,99.99
2017-07-08T04:39:59.353Z,99.99
2017-07-08T04:40:59.028Z,99.99
2017-07-08T04:41:59.492Z,99.99
2017-07-08T04:42:59.343Z,99.99
2017-07-08T04:43:59.338Z,99.99
2017-07-08T04:44:59.010Z,99.99
2017-07-08T04:45:59.339Z,99.99
2017-07-08T04:46:59.011Z,99.99
2017-07-08T04:47:59.007Z,99.99
2017-07-08T04:48:59.337Z,99.99
2017-07-08T04:49:59.005Z,99.99
2017-07-08T04:50:59.003Z,99.99
2017-07-08T04:51:59.004Z,99.99
2017-07-08T04:52:59.787Z,99.99
2017-07-08T04:53:59.000Z,99.99
2017-07-08T04:54:58.998Z,99.99
2017-07-08T04:55:59.329Z,99.99
2017-07-08T04:56:59.345Z,99.99
2017-07-08T04:57:59.030Z,99.99
2017-07-08T04:58:59.326Z,99.99
2017-07-08T04:59:58.991Z,99.99
2017-07-08T05:00:58.989Z,99.99
2017-07-08T05:01:58.994Z,99.99
2017-07-08T05:02:58.988Z,99.99
2017-07-08T05:03:59.314Z,99.99
2017-07-08T05:04:59.311Z,99.99
2017-07-08T05:05:59.334Z,99.99
2017-07-08T05:06:59.310Z,99.99
2017-07-08T05:07:59.307Z,99.99
2017-07-08T05:08:59.130Z,99.99
2017-07-08T05:09:58.980Z,99.99
2017-07-08T05:10:58.979Z,99.99
2017-07-08T05:11:59.314Z,99.99
2017-07-08T05:12:59.304Z,99.99
2017-07-08T05:13:58.973Z,99.99
2017-07-08T05:14:58.974Z,99.99
2017-07-08T05:15:58.972Z,99.99
2017-07-08T05:16:58.971Z,99.99
2017-07-08T05:17:58.979Z,99.99
2017-07-08T05:18:59.298Z,99.99
2017-07-08T05:19:58.969Z,99.99
2017-07-08T05:20:58.967Z,99.99
2017-07-08T05:21:58.965Z,99.99
2017-07-08T05:22:58.966Z,99.99
2017-07-08T05:23:59.291Z,99.99
2017-07-08T05:24:59.293Z,99.99
2017-07-08T05:25:59.289Z,99.99
2017-07-08T05:26:58.961Z,99.99
2017-07-08T05:27:58.961Z,99.99
2017-07-08T05:28:58.960Z,99.99
2017-07-08T05:29:59.286Z,99.99
2017-07-08T05:30:59.440Z,99.99
2017-07-08T05:31:58.963Z,99.99
2017-07-08T05:32:58.954Z,99.99
2017-07-08T05:33:59.285Z,99.99
2017-07-08T05:34:58.956Z,99.99
2017-07-08T05:35:59.283Z,99.99
2017-07-08T05:36:58.957Z,99.99
2017-07-08T05:37:58.959Z,99.99
2017-07-08T05:38:58.965Z,99.99
2017-07-08T05:39:58.971Z,99.99
2017-07-08T05:40:58.950Z,99.99
2017-07-08T05:41:58.948Z,99.99
2017-07-08T05:42:58.949Z,99.99
2017-07-08T05:43:58.949Z,99.99
2017-07-08T05:44:58.948Z,99.99
2017-07-08T05:45:58.945Z,99.99
2017-07-08T05:46:59.275Z,99.99
2017-07-08T05:47:58.947Z,99.99
2017-07-08T05:48:59.275Z,99.99
2017-07-08T05:49:58.946Z,99.99
2017-07-08T05:50:58.970Z,99.99
2017-07-08T05:51:58.980Z,99.99
2017-07-08T05:52:59.272Z,99.69
2017-07-08T05:53:58.951Z,99.21
2017-07-08T05:54:58.944Z,99.99
2017-07-08T05:55:59.293Z,99.99
2017-07-08T05:56:59.272Z,99.99
2017-07-08T05:57:58.945Z,98.72
2017-07-08T05:58:58.943Z,99.01
2017-07-08T05:59:58.944Z,99.99
2017-07-08T06:00:58.944Z,99.99
2017-07-08T06:01:58.943Z,99.99
2017-07-08T06:02:58.966Z,99.99
2017-07-08T06:03:59.269Z,99.99
2017-07-08T06:04:59.273Z,99.99
2017-07-08T06:05:58.945Z,99.99
2017-07-08T06:06:59.293Z,99.44
2017-07-08T06:07:58.941Z,99.54
2017-07-08T06:08:59.283Z,99.44
2017-07-08T06:09:59.271Z,95.02
2017-07-08T06:10:59.282Z,95.4
2017-07-08T06:11:59.300Z,97.42
2017-07-08T06:12:58.942Z,96.46
2017-07-08T06:13:58.946Z,98.1
2017-07-08T06:14:58.941Z,97.33
2017-07-08T06:15:58.957Z,98.1
2017-07-08T06:16:58.975Z,96.75
2017-07-08T06:17:59.295Z,97.91
2017-07-08T06:18:58.939Z,98
2017-07-08T06:19:58.941Z,98.39
2017-07-08T06:20:58.939Z,94.78
2017-07-08T06:21:58.939Z,92.47
2017-07-08T06:22:58.941Z,93.14
2017-07-08T06:23:58.942Z,89.67
2017-07-08T06:24:58.942Z,86.59
2017-07-08T06:25:59.269Z,87.07
2017-07-08T06:26:58.944Z,88.04
2017-07-08T06:27:58.940Z,88.42
2017-07-08T06:28:58.980Z,88.85
2017-07-08T06:29:58.947Z,90.16
2017-07-08T06:30:59.272Z,91.94
2017-07-08T06:31:58.958Z,91.89
2017-07-08T06:32:58.949Z,91.89
2017-07-08T06:33:58.977Z,92.56
2017-07-08T06:34:58.941Z,91.21
2017-07-08T06:35:58.973Z,91.89
2017-07-08T06:36:59.273Z,91.31
2017-07-08T06:37:58.947Z,90.92
2017-07-08T06:38:58.953Z,90.73
2017-07-08T06:39:58.976Z,90.64
2017-07-08T06:40:59.008Z,91.21
2017-07-08T06:41:59.298Z,88.17
2017-07-08T06:42:59.298Z,85.28
2017-07-08T06:43:58.945Z,85.38
2017-07-08T06:44:59.293Z,83.11
2017-07-08T06:45:58.946Z,81.18
2017-07-08T06:46:58.968Z,81.02
2017-07-08T06:47:58.948Z,81.35
2017-07-08T06:48:58.949Z,79.02
2017-07-08T06:49:59.301Z,75.58
2017-07-08T06:50:58.953Z,71.4
2017-07-08T06:51:58.953Z,67.6
2017-07-08T06:52:58.954Z,64.95
2017-07-08T06:53:58.955Z,62.36
2017-07-08T06:54:58.959Z,60.58
2017-07-08T06:55:58.961Z,57.21
2017-07-08T06:56:58.965Z,54.71
2017-07-08T06:57:58.968Z,54.71
2017-07-08T06:58:58.971Z,52.69
2017-07-08T06:59:58.977Z,52.47
2017-07-08T07:00:58.983Z,51.72
2017-07-08T07:01:58.982Z,49.02
2017-07-08T07:02:59.328Z,48.93
2017-07-08T07:03:58.990Z,48.07
2017-07-08T07:04:58.995Z,48.07
2017-07-08T07:05:59.000Z,46.44
2017-07-08T07:06:59.004Z,45.68
2017-07-08T07:07:59.010Z,43.44
2017-07-08T07:08:59.012Z,43.08
2017-07-08T07:09:59.347Z,42.8
2017-07-08T07:10:59.046Z,41.36
2017-07-08T07:11:59.051Z,39.31
2017-07-08T07:12:59.035Z,38.94
2017-07-08T07:13:59.040Z,40.01
2017-07-08T07:14:59.048Z,40.89
2017-07-08T07:15:59.052Z,39.84
2017-07-08T07:16:59.060Z,37.89
2017-07-08T07:17:59.065Z,37.32
2017-07-08T07:18:59.423Z,37.54
2017-07-08T07:19:59.076Z,39.98
2017-07-08T07:20:59.085Z,39.61
2017-07-08T07:21:59.422Z,35.71
2017-07-08T07:22:59.099Z,34.03
2017-07-08T07:23:59.107Z,35.19
2017-07-08T07:24:59.440Z,36.23
2017-07-08T07:25:59.450Z,37.85
2017-07-08T07:26:59.129Z,38.42
2017-07-08T07:27:59.135Z,38.59
2017-07-08T07:28:59.468Z,39.14
2017-07-08T07:29:59.148Z,39.14
2017-07-08T07:30:59.484Z,40.11
2017-07-08T07:31:59.172Z,39.84
2017-07-08T07:32:59.495Z,38.3
2017-07-08T07:33:59.516Z,39.57
2017-07-08T07:34:59.546Z,39.29
2017-07-08T07:35:59.529Z,39.29
2017-07-08T07:36:59.196Z,39.28
2017-07-08T07:38:05.518Z,41.11
2017-07-08T07:38:59.214Z,42.65
2017-07-08T07:39:59.222Z,41.36
2017-07-08T07:40:59.225Z,42.31
2017-07-08T07:41:59.229Z,42.39
2017-07-08T07:42:59.236Z,43.63
2017-07-08T07:43:59.242Z,44.29
2017-07-08T07:44:59.254Z,45.04
2017-07-08T07:45:59.601Z,47.25
2017-07-08T07:46:59.261Z,47.03
2017-07-08T07:47:59.268Z,47.89
2017-07-08T07:48:59.275Z,48.35
2017-07-08T07:49:59.611Z,49.8
2017-07-08T07:50:59.613Z,49.7
2017-07-08T07:51:59.293Z,50.19
2017-07-08T07:52:59.621Z,51.62
2017-07-08T07:53:59.298Z,51.72
2017-07-08T07:54:59.303Z,51.52
2017-07-08T07:55:59.637Z,52
2017-07-08T07:56:59.640Z,53.07
2017-07-08T07:57:59.337Z,54.81
2017-07-08T07:58:59.320Z,55.88
2017-07-08T07:59:59.652Z,54.62
2017-07-08T08:00:59.331Z,54.71
2017-07-08T08:01:59.662Z,55.98
2017-07-08T08:02:59.344Z,55.98
2017-07-08T08:03:59.343Z,54.59
2017-07-08T08:04:59.673Z,54.23
2017-07-08T08:05:59.678Z,54.59
2017-07-08T08:06:59.355Z,53.53
2017-07-08T08:07:59.357Z,53.81
2017-07-08T08:08:59.362Z,54.62
2017-07-08T08:09:59.707Z,54.62
2017-07-08T08:10:59.702Z,54.06
2017-07-08T08:11:59.721Z,52.54
2017-07-08T08:12:59.707Z,48.8
2017-07-08T08:13:59.380Z,47.93
2017-07-08T08:14:59.386Z,49.95
2017-07-08T08:15:59.409Z,52.08
2017-07-08T08:16:59.400Z,52.93
2017-07-08T08:17:59.408Z,52.34
2017-07-08T08:18:59.401Z,50.72
2017-07-08T08:19:59.423Z,48.8
2017-07-08T08:20:59.737Z,47.86
2017-07-08T08:21:59.413Z,47.01
2017-07-08T08:22:59.415Z,44.99
2017-07-08T08:23:59.423Z,46.67
2017-07-08T08:24:59.425Z,48.41
2017-07-08T08:25:59.430Z,46.78
2017-07-08T08:26:59.763Z,45.25
2017-07-08T08:27:59.439Z,45.15
2017-07-08T08:28:59.780Z,44.76
2017-07-08T08:29:59.446Z,45.23
2017-07-08T08:30:59.451Z,45.5
2017-07-08T08:31:59.783Z,46.18
2017-07-08T08:32:59.463Z,47.52
2017-07-08T08:33:59.471Z,47.01
2017-07-08T08:34:59.477Z,46.98
2017-07-08T08:35:59.803Z,48.15
2017-07-08T08:36:59.481Z,45.7
2017-07-08T08:37:59.485Z,46.94
2017-07-08T08:38:59.489Z,47.3
2017-07-08T08:39:59.491Z,49.15
2017-07-08T08:40:59.497Z,51.76
2017-07-08T08:41:59.839Z,50.02
2017-07-08T08:42:59.525Z,49.82
2017-07-08T08:43:59.837Z,47.89
2017-07-08T08:44:59.514Z,47.81
2017-07-08T08:45:59.846Z,48.1
2017-07-08T08:46:59.522Z,48.2
2017-07-08T08:47:59.870Z,48.39
2017-07-08T08:48:59.531Z,47.62
2017-07-08T08:49:59.535Z,50.07
2017-07-08T08:50:59.543Z,48.9
2017-07-08T08:51:59.870Z,48.32
2017-07-08T08:52:59.549Z,47.83
2017-07-08T08:53:59.878Z,46.84
2017-07-08T08:54:59.572Z,47.33
2017-07-08T08:55:59.566Z,50.02
2017-07-08T08:56:59.567Z,48.27
2017-07-08T08:57:59.923Z,50.5
2017-07-08T08:58:59.576Z,50.21
2017-07-08T08:59:59.911Z,50.5
2017-07-08T09:00:59.585Z,50.53
2017-07-08T09:01:59.588Z,51.28
2017-07-08T09:02:59.920Z,51.37
2017-07-08T09:03:59.926Z,51.89
2017-07-08T09:04:59.926Z,51.67
2017-07-08T09:05:59.605Z,46.75
2017-07-08T09:06:59.608Z,48.76
2017-07-08T09:07:59.940Z,47.11
2017-07-08T09:08:59.616Z,47.2
2017-07-08T09:09:59.620Z,46.31
2017-07-08T09:10:59.624Z,46.58
2017-07-08T09:11:59.634Z,47.16
2017-07-08T09:12:59.963Z,47.16
2017-07-08T09:13:59.636Z,47.74
2017-07-08T09:14:59.660Z,47.57
2017-07-08T09:15:59.666Z,47.47
2017-07-08T09:16:59.985Z,48.74
2017-07-08T09:17:59.667Z,48.35
2017-07-08T09:18:59.673Z,48.95
2017-07-08T09:19:59.991Z,49.73
2017-07-08T09:20:59.681Z,48.27
2017-07-08T09:21:59.669Z,48.08
2017-07-08T09:22:59.672Z,47.2
2017-07-08T09:23:59.677Z,50.12
2017-07-08T09:24:59.681Z,50.5
2017-07-08T09:25:59.685Z,48.57
2017-07-08T09:26:59.688Z,49.24
2017-07-08T09:27:59.692Z,49.61
2017-07-08T09:28:59.703Z,50.09
2017-07-08T09:29:59.702Z,50.38
2017-07-08T09:30:59.706Z,50.09
2017-07-08T09:32:00.049Z,51.35
2017-07-08T09:33:00.044Z,50.09
2017-07-08T09:34:00.044Z,48.83
2017-07-08T09:34:59.720Z,49.9
2017-07-08T09:35:59.726Z,50.19
2017-07-08T09:36:59.750Z,49.9
2017-07-08T09:37:59.732Z,50.57
2017-07-08T09:38:59.734Z,49.87
2017-07-08T09:39:59.740Z,50.74
2017-07-08T09:40:59.743Z,51.52
2017-07-08T09:42:00.072Z,52.29
2017-07-08T09:43:00.078Z,53.17
2017-07-08T09:44:00.084Z,53.75
2017-07-08T09:44:59.773Z,51.45
2017-07-08T09:45:59.780Z,51.06
2017-07-08T09:46:59.766Z,50.67
2017-07-08T09:47:59.772Z,50.57
2017-07-08T09:49:00.099Z,51.74
2017-07-08T09:50:00.109Z,53.75
2017-07-08T09:51:00.116Z,54.13
2017-07-08T09:51:59.790Z,53.65
2017-07-08T09:52:59.788Z,53.85
2017-07-08T09:53:59.800Z,54.43
2017-07-08T09:55:00.124Z,52.56
2017-07-08T09:55:59.797Z,51.81
2017-07-08T09:57:00.129Z,51.81
2017-07-08T09:58:00.134Z,53.17
2017-07-08T09:58:59.809Z,56.46
2017-07-08T09:59:59.833Z,53.94
2017-07-08T10:01:00.144Z,51.52
2017-07-08T10:01:59.820Z,51.16
2017-07-08T10:02:59.824Z,51.32
2017-07-08T10:03:59.825Z,51.42
2017-07-08T10:05:00.154Z,51.62
2017-07-08T10:06:00.165Z,53.65
2017-07-08T10:06:59.835Z,54.23
2017-07-08T10:07:59.848Z,53.75
2017-07-08T10:09:00.183Z,55.78
2017-07-08T10:09:59.850Z,56.46
2017-07-08T10:11:00.199Z,55.42
2017-07-08T10:12:00.183Z,53.77
2017-07-08T10:12:59.870Z,53.58
2017-07-08T10:13:59.863Z,53.19
2017-07-08T10:15:00.194Z,52.42
2017-07-08T10:15:59.871Z,51.74
2017-07-08T10:16:59.872Z,50.38
2017-07-08T10:18:00.205Z,51.06
2017-07-08T10:18:59.884Z,50.79
2017-07-08T10:20:00.232Z,51.67
2017-07-08T10:20:59.889Z,51.5
2017-07-08T10:21:59.891Z,51.62
2017-07-08T10:22:59.902Z,50.46
2017-07-08T10:23:59.912Z,50.56
2017-07-08T10:25:00.234Z,49.49
2017-07-08T10:25:59.922Z,48.8
2017-07-08T10:26:59.915Z,50.26
2017-07-08T10:27:59.934Z,48.71
2017-07-08T10:29:00.249Z,46.77
2017-07-08T10:30:00.254Z,49.1
2017-07-08T10:31:00.259Z,50.16
2017-07-08T10:31:59.937Z,49.19
2017-07-08T10:33:00.269Z,51.81
2017-07-08T10:33:59.943Z,53.1
2017-07-08T10:34:59.946Z,48.73
2017-07-08T10:36:00.283Z,50.26
2017-07-08T10:37:00.284Z,51.53
2017-07-08T10:38:00.289Z,50.36
2017-07-08T10:38:59.972Z,49.1
2017-07-08T10:39:59.978Z,49.66
2017-07-08T10:40:59.984Z,51.4
2017-07-08T10:41:59.978Z,51.86
2017-07-08T10:43:00.308Z,52.54
2017-07-08T10:44:00.313Z,53.58
2017-07-08T10:45:00.344Z,54.43
2017-07-08T10:45:59.993Z,55.88
2017-07-08T10:47:00.017Z,55.85
2017-07-08T10:48:00.001Z,57.69
2017-07-08T10:49:00.007Z,59.01
2017-07-08T10:50:00.009Z,58.44
2017-07-08T10:51:00.013Z,58.34
2017-07-08T10:52:00.349Z,56.7
2017-07-08T10:53:00.019Z,58.4
2017-07-08T10:54:00.352Z,58.89
2017-07-08T10:55:00.351Z,60.21
2017-07-08T10:56:00.027Z,63.31
2017-07-08T10:57:00.035Z,64.92
2017-07-08T10:58:00.040Z,67.49
2017-07-08T10:59:00.046Z,70.06
2017-07-08T11:00:00.373Z,75.05
2017-07-08T11:01:00.056Z,75.59
2017-07-08T11:02:00.372Z,79.98
2017-07-08T11:03:00.046Z,79.89
2017-07-08T11:04:00.046Z,82.59
2017-07-08T11:05:00.049Z,86.54
2017-07-08T11:06:00.050Z,87.5
2017-07-08T11:07:00.385Z,87.16
2017-07-08T11:08:00.054Z,86.82
2017-07-08T11:09:00.054Z,84.35
2017-07-08T11:10:00.057Z,83.96
2017-07-08T11:11:00.385Z,80.72
2017-07-08T11:12:00.062Z,82.07
2017-07-08T11:13:00.061Z,82.94
2017-07-08T11:14:00.390Z,81.4
2017-07-08T11:15:00.067Z,80.05
2017-07-08T11:16:00.398Z,81.59
2017-07-08T11:17:00.069Z,73.42
2017-07-08T11:18:00.070Z,70.9
2017-07-08T11:19:00.401Z,69.65
2017-07-08T11:20:00.400Z,72.61
2017-07-08T11:21:00.076Z,75.41
2017-07-08T11:22:00.077Z,76.57
2017-07-08T11:23:00.078Z,80.33
2017-07-08T11:24:00.079Z,74.06
2017-07-08T11:25:00.083Z,76.67
2017-07-08T11:26:00.085Z,78.41
2017-07-08T11:27:00.086Z,79.37
2017-07-08T11:28:00.093Z,80.08
2017-07-08T11:29:00.086Z,81.44
2017-07-08T11:30:00.416Z,82.21
2017-07-08T11:31:00.094Z,82.98
2017-07-08T11:32:00.421Z,83.27
2017-07-08T11:33:00.426Z,82.64
2017-07-08T11:34:00.425Z,81.48
2017-07-08T11:35:00.100Z,82.64
2017-07-08T11:36:00.109Z,81.71
2017-07-08T11:37:00.106Z,81.23
2017-07-08T11:38:00.106Z,81.71
2017-07-08T11:39:00.439Z,80.49
2017-07-08T11:40:00.441Z,79.14
2017-07-08T11:41:00.440Z,77.01
2017-07-08T11:42:00.135Z,69.31
2017-07-08T11:43:00.458Z,72.5
2017-07-08T11:44:00.120Z,74.21
2017-07-08T11:45:00.123Z,75.4
2017-07-08T11:46:00.467Z,73.66
2017-07-08T11:47:00.127Z,76.46
2017-07-08T11:48:00.131Z,73.37
2017-07-08T11:49:00.152Z,74.24
2017-07-08T11:50:00.466Z,75.11
2017-07-08T11:51:00.497Z,76.02
2017-07-08T11:52:00.142Z,76.12
2017-07-08T11:53:00.145Z,74.76
2017-07-08T11:54:00.146Z,75.28
2017-07-08T11:55:00.150Z,73.35
2017-07-08T11:56:00.160Z,71.22
2017-07-08T11:57:00.157Z,71.6
2017-07-08T11:58:00.176Z,72.22
2017-07-08T11:59:00.164Z,69.79
2017-07-08T12:00:00.166Z,66.82
2017-07-08T12:01:00.172Z,66.92
2017-07-08T12:02:00.175Z,67.63
2017-07-08T12:03:00.505Z,67.05
2017-07-08T12:04:00.182Z,60.13
2017-07-08T12:05:00.184Z,60.13
2017-07-08T12:06:00.190Z,61.78
2017-07-08T12:07:00.192Z,61.19
2017-07-08T12:08:00.196Z,60.88
2017-07-08T12:09:00.537Z,61.55
2017-07-08T12:10:00.203Z,60.27
2017-07-08T12:11:00.225Z,61.14
2017-07-08T12:12:00.228Z,61.72
2017-07-08T12:13:00.233Z,63.46
2017-07-08T12:14:00.222Z,61.62
2017-07-08T12:15:00.564Z,61.69
2017-07-08T12:16:00.556Z,64.11
2017-07-08T12:17:00.560Z,65.37
2017-07-08T12:18:00.235Z,65.43
2017-07-08T12:19:00.236Z,65.95
2017-07-08T12:20:00.581Z,64.2
2017-07-08T12:21:00.575Z,65.56
2017-07-08T12:22:00.575Z,63.82
2017-07-08T12:23:00.272Z,65.66
2017-07-08T12:24:00.256Z,65.95
2017-07-08T12:25:00.310Z,65.17
2017-07-08T12:26:00.261Z,64.89
2017-07-08T12:27:00.275Z,64.4
2017-07-08T12:28:00.268Z,63.24
2017-07-08T12:29:00.273Z,64.11
2017-07-08T12:30:00.604Z,64.4
2017-07-08T12:31:00.614Z,64.43
2017-07-08T12:32:00.284Z,62.69
2017-07-08T12:33:00.620Z,62.1
2017-07-08T12:34:00.289Z,62.59
2017-07-08T12:35:00.293Z,61.33
2017-07-08T12:36:00.636Z,60.3
2017-07-08T12:37:00.299Z,60.75
2017-07-08T12:38:00.632Z,60.17
2017-07-08T12:39:00.306Z,58.72
2017-07-08T12:40:00.311Z,59
2017-07-08T12:41:00.334Z,61.72
2017-07-08T12:42:00.644Z,61.82
2017-07-08T12:43:00.319Z,60.17
2017-07-08T12:44:00.325Z,59
2017-07-08T12:45:00.330Z,59
2017-07-08T12:46:00.330Z,60.62
2017-07-08T12:47:00.665Z,61.88
2017-07-08T12:48:00.343Z,62.2
2017-07-08T12:49:00.667Z,60.94
2017-07-08T12:50:00.674Z,59.61
2017-07-08T12:51:00.348Z,58.84
2017-07-08T12:52:00.353Z,58.72
2017-07-08T12:53:00.686Z,58.55
2017-07-08T12:54:00.358Z,59.78
2017-07-08T12:55:00.694Z,60.58